• Join FlightAware (Why Join?)
  • Login
  • US Flag 
03:12PM EDT


 

Airport Tracker/Info


-or-


 

Live Flight TrackerFlight Track Log ✈ UAL4550 ✈ 18-Apr-2013 ✈ KSLC - KIAH

Flight Track Log - Related Links

Times and Time Zones

All times are in EDT time to prevent confusion due to time zone crossing. See the UAL4550 flight status page for this flight to view local times or setup timezone preferences in your user account.

Time Position Orientation Groundspeed Altitude Reporting Facility
EDT Latitude Longitude Course Direction KTS MPH feet Rate Location/Type
03:36PM 40.8056 -111.9628 355° North 190 219 4,900  Level Salt Lake Center
03:37PM 40.8606 -111.9694 355° North 210 242 7,000 1,980 Climbing Salt Lake Center
03:38PM 40.8983 -111.9756 353° North 219 252 8,400 2,340 Climbing Salt Lake Center
03:38PM 40.9250 -111.9789 355° North 228 262 9,400 2,220 Climbing Salt Lake Center
03:39PM 40.9633 -111.9847 353° North 232 267 10,700 1,860 Climbing Salt Lake Center
03:40PM 41.0053 -111.9314 44° Northeast 266 306 12,700 1,500 Climbing Salt Lake Center
03:41PM 40.9478 -111.8275 126° Southeast 315 362 13,800 960 Climbing Salt Lake Center
03:42PM 40.8869 -111.7264 128° Southeast 356 410 14,700 960 Climbing Salt Lake Center
03:43PM 40.8206 -111.6158 128° Southeast 385 443 15,800 1,200 Climbing Salt Lake Center
03:44PM 40.7517 -111.5025 129° Southeast 396 456 17,200 1,140 Climbing Salt Lake Center
03:45PM 40.6869 -111.3856 126° Southeast 398 458 18,200 1,260 Climbing Salt Lake Center
03:46PM 40.6419 -111.2261 110° East 388 447 19,900 1,500 Climbing Salt Lake Center
03:47PM 40.6025 -111.0919 111° Southeast 392 451 21,300 1,380 Climbing Salt Lake Center
03:48PM 40.5628 -110.9561 111° Southeast 399 459 22,800 1,440 Climbing Salt Lake Center
03:49PM 40.5228 -110.8214 111° Southeast 397 457 24,300 1,380 Climbing Salt Lake Center
03:50PM 40.4833 -110.6856 111° Southeast 398 458 25,700 1,500 Climbing Salt Lake Center
03:51PM 40.4381 -110.5342 111° Southeast 393 452 27,400 1,260 Climbing Salt Lake Center
03:52PM 40.3992 -110.4075 112° Southeast 393 452 28,400 1,020 Climbing Salt Lake Center
03:53PM 40.3536 -110.2594 112° Southeast 392 451 29,500 960 Climbing Salt Lake Center
03:54PM 40.3114 -110.1317 113° Southeast 396 456 30,400 960 Climbing Salt Lake Center
03:55PM 40.2367 -109.9933 125° Southeast 414 476 31,500 1,020 Climbing Salt Lake Center
03:56PM 40.1739 -109.8764 125° Southeast 412 474 32,600 720 Climbing Salt Lake Center
03:57PM 40.1111 -109.7572 125° Southeast 414 476 33,000 180 Climbing Salt Lake Center
03:58PM 40.0331 -109.6108 125° Southeast 434 499 33,000  Level Salt Lake Center
03:59PM 39.9861 -109.5214 124° Southeast 450 518 33,000  Level Denver Center
04:00PM 39.9131 -109.3869 125° Southeast 467 537 33,000  Level Denver Center
04:01PM 39.8264 -109.2261 125° Southeast 482 555 33,000  Level Denver Center
04:01PM 39.8019 -109.1825 126° Southeast 483 556 33,000  Level Salt Lake Center
04:02PM 39.7517 -109.0903 125° Southeast 484 557 33,000  Level Denver Center
04:03PM 39.6664 -108.9336 125° Southeast 480 552 33,000  Level Denver Center
04:04PM 39.5864 -108.7911 126° Southeast 483 556 33,000  Level Denver Center
04:05PM 39.5103 -108.6508 125° Southeast 481 554 33,000  Level Denver Center
04:06PM 39.4369 -108.5181 126° Southeast 476 548 33,000  Level Denver Center
04:07PM 39.3486 -108.3594 126° Southeast 490 564 33,000  Level Denver Center
04:08PM 39.2744 -108.2267 126° Southeast 476 548 33,000  Level Denver Center
04:09PM 39.1872 -108.0692 126° Southeast 485 558 33,000  Level Denver Center
04:10PM 39.1108 -107.9356 126° Southeast 485 558 33,000  Level Denver Center
04:11PM 39.0361 -107.7992 125° Southeast 487 560 33,000  Level Denver Center
04:12PM 38.9458 -107.6419 126° Southeast 488 562 33,000  Level Denver Center
04:13PM 38.8678 -107.5081 127° Southeast 489 563 33,000  Level Denver Center
04:14PM 38.7781 -107.3514 126° Southeast 490 564 33,000  Level Denver Center
04:15PM 38.7006 -107.2192 127° Southeast 485 558 33,000  Level Denver Center
04:16PM 38.6208 -107.0778 126° Southeast 489 563 33,000  Level Denver Center
04:17PM 38.5397 -106.9389 127° Southeast 488 562 33,000  Level Denver Center
04:18PM 38.4578 -106.7997 127° Southeast 492 566 33,000  Level Denver Center
04:19PM 38.3758 -106.6586 127° Southeast 494 568 33,000  Level Denver Center
04:21PM 38.2772 -106.4925 127° Southeast 491 565 33,000  Level Denver Center
04:22PM 38.1956 -106.3525 127° Southeast 493 567 33,000  Level Denver Center
04:23PM 38.1133 -106.2147 127° Southeast 491 565 33,000  Level Denver Center
04:24PM 38.0256 -106.0639 126° Southeast 492 566 33,000  Level Denver Center
04:25PM 37.9450 -105.9322 128° Southeast 494 568 33,000  Level Denver Center
04:26PM 37.8508 -105.7789 128° Southeast 492 566 33,000  Level Denver Center
04:27PM 37.7697 -105.6472 128° Southeast 495 570 33,000  Level Denver Center
04:28PM 37.6906 -105.5133 127° Southeast 497 572 33,000  Level Denver Center
04:29PM 37.5983 -105.3589 127° Southeast 494 568 33,000  Level Denver Center
04:30PM 37.5164 -105.2267 128° Southeast 497 572 33,000  Level Denver Center
04:31PM 37.4228 -105.0742 128° Southeast 496 571 33,000  Level Denver Center
04:32PM 37.3417 -104.9433 128° Southeast 496 571 33,000  Level Denver Center
04:33PM 37.2469 -104.7908 128° Southeast 497 572 33,000  Level Denver Center
04:34PM 37.1661 -104.6589 128° Southeast 499 574 33,000  Level Denver Center
04:35PM 37.0714 -104.5078 128° Southeast 497 572 33,000  Level Denver Center
04:36PM 36.9897 -104.3778 128° Southeast 497 572 33,000  Level Denver Center
04:37PM 36.9081 -104.2467 128° Southeast 498 573 33,000  Level Albuquerque Center
04:38PM 36.8128 -104.0964 128° Southeast 496 571 33,000  Level Albuquerque Center
04:39PM 36.7300 -103.9678 129° Southeast 497 572 33,000  Level Albuquerque Center
04:40PM 36.6347 -103.8206 129° Southeast 497 572 33,000  Level Albuquerque Center
04:41PM 36.5469 -103.6847 129° Southeast 498 573 33,000  Level Albuquerque Center
04:42PM 36.4603 -103.5483 128° Southeast 497 572 33,000  Level Albuquerque Center
04:43PM 36.3714 -103.4114 129° Southeast 501 577 33,000  Level Albuquerque Center
04:44PM 36.2833 -103.2764 129° Southeast 499 574 33,000  Level Albuquerque Center
04:45PM 36.1944 -103.1400 129° Southeast 502 578 33,000  Level Albuquerque Center
04:46PM 36.0917 -102.9819 129° Southeast 500 575 33,000  Level Albuquerque Center
04:47PM 36.0050 -102.8503 129° Southeast 499 574 33,000  Level Albuquerque Center
04:48PM 35.9178 -102.7189 129° Southeast 497 572 33,000  Level Albuquerque Center
04:49PM 35.8322 -102.5892 129° Southeast 492 566 33,000  Level Albuquerque Center
04:50PM 35.7467 -102.4594 129° Southeast 489 563 33,000  Level Albuquerque Center
04:51PM 35.7412 -102.4500 129° Southeast  Level FlightAware Approximate
04:51PM 35.6606 -102.3300 129° Southeast 489 563 33,000  Level Albuquerque Center
04:52PM 35.5561 -102.1742 129° Southeast 492 566 33,000  Level Albuquerque Center
04:53PM 35.4689 -102.0442 129° Southeast 494 568 33,000  Level Albuquerque Center
04:55PM 35.3756 -101.9036 129° Southeast 494 568 33,000  Level Albuquerque Center
04:56PM 35.2886 -101.7742 129° Southeast 489 563 33,000  Level Albuquerque Center
04:57PM 35.2003 -101.6461 130° Southeast 495 570 33,000  Level Albuquerque Center
04:58PM 35.1211 -101.5175 127° Southeast 481 554 33,000  Level Albuquerque Center
04:59PM 35.0361 -101.3867 128° Southeast 485 558 33,000  Level Albuquerque Center
05:00PM 34.9458 -101.2522 129° Southeast 494 568 33,000  Level Albuquerque Center
05:01PM 34.8606 -101.1203 128° Southeast 494 568 33,000  Level Albuquerque Center
05:02PM 34.7569 -100.9617 128° Southeast 499 574 33,000  Level Albuquerque Center
05:03PM 34.6694 -100.8292 129° Southeast 502 578 33,000  Level Albuquerque Center
05:04PM 34.5819 -100.6964 129° Southeast 504 580 33,000  Level Albuquerque Center
05:05PM 34.4939 -100.5633 129° Southeast 505 581 33,000  Level Albuquerque Center
05:06PM 34.4053 -100.4303 129° Southeast 507 583 33,000  Level Albuquerque Center
05:07PM 34.3336 -100.3233 129° Southeast 503 579 33,000  Level Fort Worth Center
05:08PM 34.2528 -100.2050 130° Southeast 508 585 33,000  Level Fort Worth Center
05:09PM 34.1639 -100.0742 129° Southeast 508 585 33,000  Level Fort Worth Center
05:10PM 34.0767 -99.9436 129° Southeast 503 579 33,000  Level Fort Worth Center
05:11PM 33.9894 -99.8133 129° Southeast 503 579 33,000  Level Fort Worth Center
05:12PM 33.9022 -99.6858 129° Southeast 503 579 33,000  Level Fort Worth Center
05:13PM 33.8169 -99.5586 129° Southeast 503 579 33,000  Level Fort Worth Center
05:14PM 33.7314 -99.4339 129° Southeast 497 572 33,000  Level Fort Worth Center
05:15PM 33.6353 -99.2944 130° Southeast 492 566 33,000  Level Fort Worth Center
05:16PM 33.5494 -99.1706 130° Southeast 487 560 33,000  Level Fort Worth Center
05:17PM 33.4431 -99.0192 130° Southeast 492 566 33,000  Level Fort Worth Center
05:18PM 33.3569 -98.8956 130° Southeast 492 566 33,000  Level Fort Worth Center
05:19PM 33.2686 -98.7650 129° Southeast 492 566 33,000  Level Fort Worth Center
05:20PM 33.1822 -98.6422 130° Southeast 492 566 33,000  Level Fort Worth Center
05:21PM 33.0956 -98.5194 130° Southeast 487 560 33,000  Level Fort Worth Center
05:22PM 33.0172 -98.4069 130° Southeast 487 560 33,000  Level Fort Worth Center
05:23PM 32.9306 -98.2847 130° Southeast 492 566 33,000  Level Fort Worth Center
05:24PM 32.8394 -98.1578 130° Southeast 487 560 33,000  Level Fort Worth Center
05:25PM 32.7503 -98.0358 131° Southeast 492 566 33,000  Level Fort Worth Center
05:26PM 32.6569 -97.9144 132° Southeast 492 566 33,000  Level Fort Worth Center
05:27PM 32.5633 -97.7956 133° Southeast 492 566 33,000  Level Fort Worth Center
05:28PM 32.4678 -97.6794 134° Southeast 492 566 33,000  Level Fort Worth Center
05:29PM 32.3761 -97.5633 133° Southeast 487 560 33,000  Level Fort Worth Center
05:30PM 32.2800 -97.4428 133° Southeast 487 560 33,000  Level Fort Worth Center
05:31PM 32.2175 -97.2686 113° Southeast 513 590 33,000 -240 Level Fort Worth Center
05:32PM 32.2169 -97.0794 90° East 554 638 32,600 -720 Descending Fort Worth Center
05:33PM 32.2228 -96.8953 88° East 559 643 31,600 -840 Descending Fort Worth Center
05:34PM 32.1636 -96.7433 115° Southeast 494 568 31,000 -300 Descending Fort Worth Center
05:35PM 32.0506 -96.6781 154° Southeast 428 493 31,000  Level Fort Worth Center
05:36PM 31.9397 -96.6447 166° South 410 472 31,000  Level Fort Worth Center
05:37PM 31.8244 -96.6114 166° South 417 480 31,000  Level Fort Worth Center
05:39PM 31.6139 -96.5439 165° South 424 488 31,000  Level Houston Center
05:40PM 31.4969 -96.5064 165° South 428 493 31,000 -480 Level Houston Center
05:41PM 31.3811 -96.4617 162° South 433 498 30,000 -1,620 Descending Houston Center
05:42PM 31.2444 -96.4106 162° South 437 503 27,700 -1,980 Descending Houston Center
05:43PM 31.1247 -96.3539 158° South 455 524 26,000 -1,560 Descending Houston Center
05:44PM 31.0158 -96.2750 148° Southeast 456 525 24,500 -1,500 Descending Houston Center
05:45PM 30.9117 -96.1972 147° Southeast 441 507 23,000 -1,500 Descending Houston Center
05:46PM 30.8081 -96.1219 148° Southeast 436 502 21,500 -1,680 Descending Houston Center
05:47PM 30.7044 -96.0472 148° Southeast 432 497 19,600 -2,460 Descending Houston Center
05:47PM 30.6569 -96.0117 147° Southeast 406 467 18,100 -3,360 Descending Houston Center
05:48PM 30.5981 -95.9672 147° Southeast 405 466 16,100 -2,880 Descending Houston Center
05:48PM 30.5564 -95.9383 149° Southeast 385 443 14,900 -2,940 Descending Houston Center
05:49PM 30.5089 -95.9033 148° Southeast 382 440 13,100 -2,700 Descending Houston Center
05:50PM 30.4667 -95.8736 149° Southeast 366 421 12,200 -1,500 Descending Houston Center
05:50PM 30.4275 -95.8369 141° Southeast 361 415 11,600 -1,020 Descending Houston Center
05:51PM 30.3956 -95.8044 139° Southeast 312 359 11,200 -900 Descending Houston Center
05:51PM 30.3661 -95.7714 136° Southeast 309 356 10,700 -900 Descending Houston Center
05:52PM 30.3331 -95.7389 140° Southeast 296 341 10,300 -1,020 Descending Houston Center
05:52PM 30.3042 -95.7072 137° Southeast 298 343 9,700 -1,020 Descending Houston Center
05:53PM 30.2592 -95.6606 138° Southeast 294 338 9,100 -900 Descending Houston Center
05:53PM 30.2439 -95.6447 138° Southeast 294 338 8,800 -1,140 Descending Houston Center
05:54PM 30.2128 -95.6128 138° Southeast 282 325 8,200 -1,560 Descending Houston Center
05:54PM 30.1750 -95.5708 136° Southeast 282 325 7,200 -1,740 Descending Houston Center
05:55PM 30.1550 -95.5522 141° Southeast 285 328 6,500 -1,200 Descending Houston Center
05:55PM 30.1172 -95.5114 137° Southeast 280 322 6,000 -540 Descending Houston Center
05:56PM 30.1061 -95.4758 110° East 281 323 6,000  Level Houston Center
05:56PM 30.1064 -95.4214 90° East 288 331 6,000  Level Houston Center
05:57PM 30.1064 -95.3864 90° East 255 293 6,000  Level Houston Center
05:57PM 30.1058 -95.3389 91° East 266 306 6,000  Level Houston Center
05:58PM 30.1069 -95.3019 88° East 236 272 6,000 -120 Level Houston Center
05:58PM 30.1067 -95.2600 90° East 249 287 5,900 -900 Descending Houston Center
05:59PM 30.1047 -95.2103 93° East 243 280 5,000 -1,800 Descending Houston Center
05:59PM 30.1064 -95.1839 86° East 242 278 4,100 -2,400 Descending Houston Center
06:00PM 30.1067 -95.1400 90° East 236 272 2,800 -1,860 Descending Houston Center
06:00PM 30.1056 -95.0919 92° East 239 275 2,200 -840 Descending Houston Center
06:01PM 30.1064 -95.0675 88° East 227 261 2,000 -240 Descending Houston Center
06:01PM 30.0886 -95.0314 120° Southeast 234 269 2,000  Level Houston Center
06:02PM 30.0650 -95.0317 181° South 223 257 2,000  Level Houston Center
06:03PM 30.0275 -95.0367 187° South 224 258 2,000  Level Houston Center
06:03PM 30.0169 -95.0569 239° Southwest 210 242 2,000  Level Houston Center
06:04PM 30.0078 -95.0942 254° West 208 239 2,000  Level Houston Center
06:04PM 30.0064 -95.1233 267° West 176 203 2,000  Level Houston Center
06:05PM 30.0069 -95.1522 271° West 192 221 2,000  Level Houston Center